Latest Coastal Weather Observations for Port Macquarie Airport

IDN60701

Issued at 5:41 pm EDT Monday 27 March 2017 (issued every 10 minutes, with the page automatically refreshed every 10 minutes)

About coastal observations | Map of coastal stations | Coastal observations for NSW | Marine services | Other Formats
Station Details ID: 060139 Name: PORT MACQUARIE AIRPORT AWS Lat: -31.43 Lon: 152.87 Height: 4.2 m
Data from the previous 72 hours. | See also: Recent months at Port Macquarie Airport
Date/Time
EDT
Temp
°C
Wind Pressure Rain since
9am
mm
Weather Cloud Vis
km
Sea
Height
m
Swell
Dir  Spd
kts
Gust
kts
hPa Trend Height
m
Period
s
Dir
27/05:30pm 24.8 NE 11 16 1012.9 - 0.0 - - 10 - - - -
27/05:00pm 25.1 NE 11 14 1012.9 - 0.0 - - 10 - - - -
27/04:30pm 25.4 NE 11 16 1013.0 - 0.0 - - 10 - - - -
27/04:00pm 25.3 NE 12 17 1013.1 - 0.0 - - 10 - - - -
27/03:30pm 25.5 NE 12 17 1013.4 - 0.0 - - 10 - - - -
27/03:00pm 25.6 NE 11 15 1013.7 - 0.0 - - 10 - - - -
27/02:30pm 25.7 ENE 13 18 1014.1 - 0.0 - - 10 - - - -
27/02:00pm 25.7 ENE 12 15 1014.5 - 0.0 - - 10 - - - -
27/01:30pm 25.1 ENE 11 15 1015.1 - 0.0 - - 10 - - - -
27/01:00pm 25.4 ENE 10 13 1015.6 - 0.0 - Partly cloudy 10 - - - -
27/12:30pm 25.3 ENE 10 12 1016.1 - 0.0 - Partly cloudy 10 - - - -
27/12:00pm 24.7 ENE 7 11 1016.5 - 0.0 - Cloudy 10 - - - -
27/11:30am 25.7 ENE 8 11 1016.9 - 0.0 - Partly cloudy 10 - - - -
27/11:00am 24.0 N 2 4 1017.1 - 0.0 - Partly cloudy 10 - - - -
27/10:30am 24.2 NNW 4 7 1017.3 - 0.0 - - 10 - - - -
27/10:00am 22.3 NW 4 5 1017.4 - 0.0 - Partly cloudy 10 - - - -
27/09:30am 21.5 NW 5 7 1017.5 - 0.0 - Partly cloudy 10 - - - -
27/09:00am 20.5 NW 4 5 1017.3 - 0.2 - Partly cloudy 10 - - - -
27/08:52am 20.4 WNW 4 5 1017.3 - 0.2 - Partly cloudy 10 - - - -
27/08:30am 20.1 NW 3 4 1017.0 - 0.2 - Partly cloudy 10 - - - -
27/08:16am 19.9 NW 3 5 1017.0 - 0.2 - Partly cloudy 10 - - - -
27/08:00am 19.3 W 3 4 1016.9 - 0.2 - Cloudy 1 - - - -
27/07:30am 18.8 WNW 1 4 1016.5 - 0.2 - Cloudy 0.1 - - - -
27/07:00am 18.4 CALM 0 0 1016.3 - 0.2 - Cloudy 0.5 - - - -
27/06:49am 18.6 CALM 0 0 1016.2 - 0.2 - Cloudy 4 - - - -
27/06:40am 18.7 NNW 1 3 1016.1 - 0.2 - Cloudy 10 - - - -
27/06:30am 18.6 ENE 1 4 1016.1 - 0.2 - Partly cloudy 5 - - - -
27/06:26am 18.6 N 1 4 1016.1 - 0.2 - Partly cloudy 3 - - - -
27/06:18am 18.6 NW 3 4 1016.0 - 0.2 - Partly cloudy 5 - - - -
27/06:00am 18.2 CALM 0 0 1015.9 - 0.2 Recent precip. Partly cloudy 10 - - - -
27/05:46am 18.2 CALM 0 0 1015.8 - 0.2 - Partly cloudy 10 - - - -
27/05:30am 18.2 CALM 0 0 1015.7 - 0.2 - Partly cloudy 4 - - - -
27/05:27am 18.4 CALM 0 0 1015.8 - 0.2 - Partly cloudy 5 - - - -
27/05:24am 18.3 CALM 0 0 1015.8 - 0.2 - Partly cloudy 10 - - - -
27/05:00am 17.8 CALM 0 0 1015.7 - 0.0 - Partly cloudy 0.3 - - - -
27/04:30am 17.8 CALM 0 0 1015.8 - 0.0 - - 0.2 - - - -
27/04:21am 18.2 CALM 0 0 1015.8 - 0.0 - Partly cloudy 0.9 - - - -
27/04:00am 18.1 CALM 0 0 1016.0 - 0.0 - Partly cloudy 0.3 - - - -
27/03:30am 19.4 WNW 3 3 1016.1 - 0.0 - Cloudy 0.2 - - - -
27/03:02am 19.0 CALM 0 0 1016.4 - 0.0 - Partly cloudy 0.5 - - - -
27/03:00am 18.9 CALM 0 0 1016.4 - 0.0 - Partly cloudy 0.5 - - - -
27/02:30am 19.0 CALM 0 0 1016.6 - 0.0 - - 6 - - - -
27/02:01am 19.5 CALM 0 0 1016.8 - 0.0 - Partly cloudy 4 - - - -
27/02:00am 19.6 CALM 0 0 1016.8 - 0.0 - Partly cloudy 8 - - - -
27/01:30am 19.7 CALM 0 0 1017.1 - 0.0 - Partly cloudy 10 - - - -
27/01:00am 20.0 CALM 0 0 1017.2 - 0.0 - Partly cloudy 10 - - - -
27/12:30am 20.4 CALM 0 0 1017.4 - 0.0 - Partly cloudy 10 - - - -
27/12:00am 20.6 CALM 0 0 1017.6 - 0.0 - Mostly cloudy 10 - - - -
 
Date/Time
EDT
Temp
°C
Wind Pressure Rain since
9am
mm
Weather Cloud Vis
km
Sea
Height
m
Swell
Dir  Spd
kts
Gust
kts
hPa Trend Height
m
Period
s
Dir
26/11:30pm 20.8 CALM 0 0 1017.9 - 0.0 - Partly cloudy 10 - - - -
26/11:00pm 20.8 CALM 0 0 1017.8 - 0.0 - Partly cloudy 10 - - - -
26/10:30pm 21.0 CALM 0 0 1017.9 - 0.0 - Partly cloudy 10 - - - -
26/10:00pm 21.4 CALM 0 0 1017.8 - 0.0 - Partly cloudy 10 - - - -
26/09:30pm 22.6 ESE 4 6 1017.4 - 0.0 - Partly cloudy 10 - - - -
26/09:00pm 22.9 SE 5 7 1017.2 - 0.0 - Partly cloudy 10 - - - -
26/08:30pm 23.1 SE 5 6 1017.0 - 0.0 - Partly cloudy 10 - - - -
26/08:00pm 22.9 ESE 4 5 1016.4 - 0.0 - Partly cloudy 10 - - - -
26/07:30pm 23.2 SE 5 7 1016.0 - 0.0 - Partly cloudy 10 - - - -
26/07:00pm 23.3 ESE 6 7 1015.3 - 0.0 - Partly cloudy 10 - - - -
26/06:30pm 23.6 SE 9 11 1015.0 - 0.0 - - 10 - - - -
26/06:00pm 24.4 SE 9 16 1014.4 - 0.0 - Mostly clear 10 - - - -
26/05:30pm 24.5 SE 10 15 1014.1 - 0.0 - Partly cloudy 10 - - - -
26/05:00pm 24.7 SE 10 14 1014.0 - 0.0 - Partly cloudy 10 - - - -
26/04:30pm 25.5 SE 9 13 1013.8 - 0.0 - Partly cloudy 10 - - - -
26/04:00pm 25.6 SE 10 16 1013.7 - 0.0 - Partly cloudy 10 - - - -
26/03:30pm 25.4 SSE 11 16 1013.7 - 0.0 - Partly cloudy 10 - - - -
26/03:00pm 25.4 SSE 12 16 1013.9 - 0.0 - Mostly clear 10 - - - -
26/02:30pm 26.2 SSE 12 15 1013.8 - 0.0 - Partly cloudy 10 - - - -
26/02:00pm 26.6 SSW 10 15 1014.0 - 0.0 - Partly cloudy 10 - - - -
26/01:30pm 26.0 SSW 11 15 1014.6 - 0.0 - Partly cloudy 10 - - - -
26/01:00pm 26.0 S 11 15 1014.7 - 0.0 - Partly cloudy 10 - - - -
26/12:30pm 25.7 S 8 12 1014.9 - 0.0 - Partly cloudy 10 - - - -
26/12:00pm 25.8 SSW 9 13 1015.3 - 0.0 - Partly cloudy 10 - - - -
26/11:30am 25.2 SSW 8 11 1015.2 - 0.0 - - 10 - - - -
26/11:00am 24.5 SW 7 9 1015.2 - 0.0 - Partly cloudy 10 - - - -
26/10:30am 24.2 SW 7 8 1015.2 - 0.0 - Partly cloudy 10 - - - -
26/10:00am 24.0 SSW 7 9 1015.3 - 0.0 - Partly cloudy 10 - - - -
26/09:30am 22.5 SW 7 9 1015.0 - 0.0 - Partly cloudy 10 - - - -
26/09:00am 21.8 SW 5 7 1014.8 - 12.8 - Cloudy 10 - - - -
26/08:30am 21.5 SW 5 7 1014.4 - 12.8 - Partly cloudy 10 - - - -
26/08:00am 20.5 WSW 4 5 1014.1 - 12.8 - Partly cloudy 10 - - - -
26/07:30am 19.8 CALM 0 0 1013.7 - 12.8 - Partly cloudy 10 - - - -
26/07:00am 19.6 CALM 0 0 1013.5 - 12.8 - Partly cloudy 10 - - - -
26/06:30am 19.8 CALM 0 0 1013.0 - 12.8 - Partly cloudy 10 - - - -
26/06:00am 19.8 NNW 2 4 1012.9 - 12.8 - Cloudy 10 - - - -
26/05:30am 19.9 NNW 3 4 1012.7 - 12.8 - - 10 - - - -
26/05:00am 19.9 NNW 3 4 1012.5 - 12.8 - Partly cloudy 10 - - - -
26/04:30am 20.0 WSW 1 3 1012.5 - 12.8 - - 10 - - - -
26/04:00am 20.0 WNW 1 3 1012.5 - 12.8 - - 10 - - - -
26/03:30am 20.2 W 3 6 1012.7 - 12.8 - Partly cloudy 10 - - - -
26/03:00am 20.3 WNW 6 8 1012.9 - 12.8 Recent precip. Cloudy 10 - - - -
26/02:39am 20.4 NNW 7 8 1013.1 - 12.8 - Partly cloudy 10 - - - -
26/02:30am 20.5 N 5 8 1013.0 - 12.8 - Partly cloudy 6 - - - -
26/02:00am 20.5 SW 6 9 1014.3 - 8.6 - Partly cloudy 5 - - - -
26/01:57am 20.4 SW 7 10 1014.4 - 8.0 - Partly cloudy 5 - - - -
26/01:46am 20.6 SSW 7 11 1014.4 - 6.2 - Partly cloudy 8 - - - -
26/01:30am 21.1 SW 2 6 1014.0 - 4.8 - Partly cloudy 1 - - - -
26/01:22am 21.0 SSW 2 4 1013.8 - 2.8 - Partly cloudy 5 - - - -
26/01:00am 21.4 CALM 0 0 1013.8 - 1.6 - Partly cloudy 10 - - - -
26/12:56am 21.5 CALM 0 0 1013.8 - 1.4 - Partly cloudy 8 - - - -
26/12:39am 21.6 CALM 0 0 1014.0 - 0.6 - Partly cloudy 5 - - - -
26/12:30am 21.8 CALM 0 0 1014.2 - 0.0 - Partly cloudy 10 - - - -
26/12:00am 21.7 N 4 6 1014.2 - 0.0 - Cloudy 10 - - - -
 
Date/Time
EDT
Temp
°C
Wind Pressure Rain since
9am
mm
Weather Cloud Vis
km
Sea
Height
m
Swell
Dir  Spd
kts
Gust
kts
hPa Trend Height
m
Period
s
Dir
25/11:30pm 21.7 N 4 5 1014.7 - 0.0 - Cloudy 10 - - - -
25/11:00pm 21.7 N 3 5 1014.9 - 0.0 - Cloudy 10 - - - -
25/10:30pm 21.8 N 4 5 1015.1 - 0.0 - Cloudy 10 - - - -
25/10:00pm 21.8 N 4 5 1015.1 - 0.0 - Partly cloudy 10 - - - -
25/09:30pm 22.3 N 5 7 1014.9 - 0.0 - Partly cloudy 10 - - - -
25/09:00pm 22.4 NNE 5 7 1014.7 - 0.0 - Cloudy 10 - - - -
25/08:30pm 22.4 N 6 7 1014.6 - 0.0 - Partly cloudy 10 - - - -
25/08:00pm 22.6 NNE 6 8 1014.4 - 0.0 - Cloudy 10 - - - -
25/07:30pm 23.0 NNE 6 8 1014.4 - 0.0 - Cloudy 10 - - - -
25/07:00pm 23.0 N 6 8 1014.3 - 0.0 - Cloudy 10 - - - -
25/06:30pm 23.4 NNE 7 9 1014.2 - 0.0 - Partly cloudy 10 - - - -
25/06:00pm 24.1 NNE 7 10 1013.9 - 0.0 - Partly cloudy 10 - - - -
25/05:30pm 24.0 NNE 8 11 1013.8 - 0.0 - Partly cloudy 10 - - - -
25/05:00pm 23.8 NE 7 9 1014.0 - 0.0 - - 10 - - - -
25/04:30pm 23.9 NE 8 10 1014.2 - 0.0 - Partly cloudy 10 - - - -
25/04:00pm 24.1 NE 8 11 1014.5 - 0.0 - Partly cloudy 10 - - - -
25/03:30pm 24.2 NE 9 12 1014.6 - 0.0 - Partly cloudy 10 - - - -
25/03:00pm 24.1 ENE 8 11 1014.9 - 0.0 - Cloudy 10 - - - -
25/02:30pm 24.5 NE 9 11 1015.1 - 0.0 - Partly cloudy 10 - - - -
25/02:00pm 24.7 ENE 8 11 1015.3 - 0.0 - Partly cloudy 10 - - - -
25/01:30pm 23.7 ENE 8 11 1015.9 - 0.0 - Partly cloudy 10 - - - -
25/01:00pm 24.7 NE 9 12 1016.3 - 0.0 - Cloudy 10 - - - -
25/12:30pm 23.8 ENE 7 9 1016.8 - 0.0 - Partly cloudy 10 - - - -
25/12:00pm 23.8 NE 3 7 1017.1 - 0.0 - Cloudy 10 - - - -
25/11:30am 24.0 NE 3 6 1017.4 - 0.0 - Partly cloudy 10 - - - -
25/11:00am 23.4 N 5 6 1017.6 - 0.0 - Partly cloudy 10 - - - -
25/10:30am 23.1 NW 5 6 1017.7 - 0.0 - Cloudy 10 - - - -
25/10:00am 22.6 N 3 5 1017.8 - 0.0 - Partly cloudy 10 - - - -
25/09:30am 21.6 WNW 3 5 1017.7 - 0.0 - Cloudy 10 - - - -
25/09:00am 20.7 W 5 6 1018.0 - 3.4 - Mostly cloudy 10 - - - -
25/08:30am 19.8 W 5 7 1017.8 - 3.4 - Cloudy 10 - - - -
25/08:00am 19.3 WNW 3 5 1017.6 - 3.4 - Cloudy 10 - - - -
25/07:30am 19.1 W 3 4 1017.2 - 3.4 - Cloudy 10 - - - -
25/07:00am 18.8 SSW 3 4 1017.0 - 3.4 - Cloudy 10 - - - -
25/06:30am 19.0 WSW 3 4 1017.0 - 3.4 - Partly cloudy 10 - - - -
25/06:00am 19.0 SW 3 4 1017.0 - 3.4 - Cloudy 10 - - - -
25/05:30am 19.0 W 2 3 1016.9 - 3.4 - Partly cloudy 10 - - - -
25/05:00am 18.9 CALM 0 0 1016.8 - 3.4 - Partly cloudy 10 - - - -
25/04:30am 18.8 CALM 0 0 1016.9 - 3.4 - Cloudy 10 - - - -
25/04:00am 18.8 SW 1 3 1017.0 - 3.4 - Partly cloudy 10 - - - -
25/03:30am 18.9 W 6 8 1017.2 - 3.4 - Partly cloudy 10 - - - -
25/03:00am 18.9 W 4 6 1017.3 - 3.4 Recent precip. Mostly cloudy 10 - - - -
25/02:30am 19.1 NW 1 4 1017.5 - 3.2 - Cloudy 10 - - - -
25/02:00am 19.1 WSW 1 4 1017.8 - 3.2 - Cloudy 10 - - - -
25/01:30am 19.2 SW 3 3 1018.2 - 3.2 - Cloudy 10 - - - -
25/01:00am 19.3 WSW 5 6 1018.4 - 3.2 - Cloudy 10 - - - -
25/12:30am 19.1 WSW 3 5 1018.5 - 3.2 - Partly cloudy 10 - - - -
25/12:00am 19.1 WSW 3 5 1018.6 - 3.2 - Mostly cloudy 10 - - - -
 
Date/Time
EDT
Temp
°C
Wind Pressure Rain since
9am
mm
Weather Cloud Vis
km
Sea
Height
m
Swell
Dir  Spd
kts
Gust
kts
hPa Trend Height
m
Period
s
Dir
24/11:30pm 19.4 WNW 5 7 1018.9 - 3.2 - Partly cloudy 10 - - - -
24/11:00pm 19.4 W 3 5 1018.9 - 3.2 - Partly cloudy 10 - - - -
24/10:30pm 19.6 NW 4 6 1018.9 - 3.2 - Partly cloudy 10 - - - -
24/10:00pm 19.7 W 3 5 1019.3 - 3.2 - Partly cloudy 10 - - - -
24/09:44pm 19.7 W 5 6 1019.1 - 3.2 - Partly cloudy 10 - - - -
24/09:32pm 19.8 WSW 5 8 1019.0 - 3.0 - Partly cloudy 5 - - - -
24/09:30pm 19.8 WSW 5 8 1019.0 - 3.0 - Partly cloudy 6 - - - -
24/09:00pm 19.7 CALM 0 0 1018.8 - 2.2 - Mostly cloudy 10 - - - -
24/08:30pm 19.5 W 3 4 1018.3 - 2.2 - Partly cloudy 10 - - - -
24/08:00pm 20.0 WSW 6 7 1018.1 - 2.2 - Partly cloudy 10 - - - -
24/07:30pm 19.8 SW 4 7 1018.0 - 2.2 - Partly cloudy 10 - - - -
24/07:00pm 20.0 SW 7 10 1017.9 - 2.2 - Partly cloudy 10 - - - -
24/06:30pm 21.4 S 8 11 1017.9 - 2.0 - Partly cloudy 10 - - - -
24/06:00pm 21.5 S 7 11 1017.6 - 2.0 - Mostly cloudy 10 - - - -

Other Formats:

Comma delimited format used in spreadsheet applications
http://www.bom.gov.au/fwo/IDN60701/IDN60701.94786.axf

JavaScript Object Notation format (JSON) in row-major order
http://www.bom.gov.au/fwo/IDN60701/IDN60701.94786.json